Terminal Aerodrome Forecast
Issued by NWS Bismarck, ND

Home | Current Version | Previous Version | Text Only | Print | Product List | Glossary Off
Versions: 1 2 3 4 5 6 7 8 9 10 11 12 13 14 15 16 17 18 19 20 21 22

000
FTUS43 KBIS 172200 AAA
TAFBIS
TAF AMD
KBIS 172226Z 1722/1818 20006KT P6SM VCTS SCT050CB
      TEMPO 1723/1801 VRB20G30KT 2SM TSRA BKN040CB
     FM180200 25006KT P6SM BKN080
     FM181500 31012KT P6SM BKN060=

USA.gov is the U.S. government's official web portal to all federal, state and local government web resources and services.